Time;durP1;ratioP1;P1;durP2;ratioP2;P2;SDS_P1;SDS_P2;PMS_P1;PMS_P2;Temp;Humidity;BMP_temperature;BMP_pressure;BME280_temperature;BME280_humidity;BME280_pressure;Samples;Min_cycle;Max_cycle;Signal;HPM_P1;HPM_P2
2022/11/26 00:02:21;;;;;;;8.25;3.58;;;;;;;;;;4981273;28;20411;-71
2022/11/26 00:04:47;;;;;;;8.73;3.63;;;;;;;;;;4981806;28;20090;-72
2022/11/26 00:07:17;;;;;;;7.28;3.60;;;;;;;;;;4981556;28;20101;-71
2022/11/26 00:09:42;;;;;;;15.07;3.85;;;;;;;;;;4980766;28;20141;-70
2022/11/26 00:12:23;;;;;;;6.80;3.42;;;;;;;;;;4980259;28;20125;-73
2022/11/26 00:14:49;;;;;;;6.43;3.45;;;;;;;;;;4980182;28;20054;-71
2022/11/26 00:17:15;;;;;;;6.88;3.40;;;;;;;;;;4980879;28;20407;-72
2022/11/26 00:19:41;;;;;;;10.13;3.30;;;;;;;;;;4980749;28;20054;-68
2022/11/26 00:22:29;;;;;;;6.65;3.33;;;;;;;;;;4981882;28;20130;-68
2022/11/26 00:24:55;;;;;;;7.93;2.55;;;;;;;;;;4981219;28;20132;-68
2022/11/26 00:27:24;;;;;;;7.60;2.85;;;;;;;;;;4980421;28;20065;-69
2022/11/26 00:29:49;;;;;;;7.07;2.70;;;;;;;;;;4981620;28;20407;-69
2022/11/26 00:32:21;;;;;;;5.28;2.83;;;;;;;;;;4980429;28;20046;-66
2022/11/26 00:34:47;;;;;;;5.65;2.30;;;;;;;;;;4981458;28;20499;-67
2022/11/26 00:37:21;;;;;;;13.05;3.40;;;;;;;;;;4979265;28;20284;-67
2022/11/26 00:39:47;;;;;;;9.23;2.88;;;;;;;;;;4980898;28;20050;-67
2022/11/26 00:42:12;;;;;;;5.32;3.20;;;;;;;;;;4979709;28;20053;-66
2022/11/26 00:44:38;;;;;;;5.03;3.20;;;;;;;;;;4981455;28;20050;-67
2022/11/26 00:47:03;;;;;;;4.78;3.13;;;;;;;;;;4980525;28;20058;-66
2022/11/26 00:49:28;;;;;;;5.30;2.85;;;;;;;;;;4981476;28;20050;-67
2022/11/26 00:51:55;;;;;;;8.70;3.00;;;;;;;;;;4980434;28;20133;-68
2022/11/26 00:54:22;;;;;;;9.70;3.08;;;;;;;;;;4979083;28;20084;-67
2022/11/26 00:56:49;;;;;;;7.22;3.45;;;;;;;;;;4981295;28;20089;-67
2022/11/26 00:59:18;;;;;;;6.70;2.47;;;;;;;;;;4980506;28;20499;-67
2022/11/26 01:01:44;;;;;;;4.68;2.85;;;;;;;;;;4980042;28;20156;-67
2022/11/26 01:04:09;;;;;;;11.95;3.50;;;;;;;;;;4980130;28;20149;-70
2022/11/26 01:06:38;;;;;;;6.28;3.30;;;;;;;;;;4980897;28;20046;-67
2022/11/26 01:09:05;;;;;;;6.03;2.85;;;;;;;;;;4980385;28;20496;-67
2022/11/26 01:11:30;;;;;;;3.78;2.88;;;;;;;;;;4980723;28;20065;-67
2022/11/26 01:13:56;;;;;;;6.13;2.83;;;;;;;;;;4980875;28;20054;-66
2022/11/26 01:16:25;;;;;;;8.48;2.95;;;;;;;;;;4980258;28;20070;-67
2022/11/26 01:18:53;;;;;;;9.63;3.00;;;;;;;;;;4981005;28;20804;-67
2022/11/26 01:21:19;;;;;;;6.35;2.80;;;;;;;;;;4980164;28;20054;-66
2022/11/26 01:23:45;;;;;;;8.93;3.50;;;;;;;;;;4980687;28;20050;-67
2022/11/26 01:26:16;;;;;;;9.68;2.80;;;;;;;;;;4980180;28;20042;-67
2022/11/26 01:28:42;;;;;;;7.10;3.05;;;;;;;;;;4979483;28;20043;-67
2022/11/26 01:31:23;;;;;;;4.82;2.88;;;;;;;;;;4978016;28;20133;-67
2022/11/26 01:33:49;;;;;;;7.47;2.87;;;;;;;;;;4979040;28;20056;-67
2022/11/26 01:36:24;;;;;;;5.20;2.38;;;;;;;;;;4978388;28;20285;-68
2022/11/26 01:38:51;;;;;;;6.43;2.53;;;;;;;;;;4979318;28;20598;-66
2022/11/26 01:41:38;;;;;;;9.00;3.15;;;;;;;;;;4978360;28;20053;-67
2022/11/26 01:44:07;;;;;;;8.82;2.83;;;;;;;;;;4980560;28;20049;-68
2022/11/26 01:46:35;;;;;;;7.18;2.85;;;;;;;;;;4980815;28;20108;-68
2022/11/26 01:49:22;;;;;;;7.43;2.92;;;;;;;;;;4980342;28;20088;-66
2022/11/26 01:51:56;;;;;;;6.03;2.53;;;;;;;;;;4979682;28;20058;-67
2022/11/26 01:54:21;;;;;;;6.30;2.97;;;;;;;;;;4980773;28;20486;-68
2022/11/26 01:56:51;;;;;;;5.82;2.47;;;;;;;;;;4980651;28;20056;-67
2022/11/26 01:59:23;;;;;;;6.78;2.65;;;;;;;;;;4979220;28;20533;-67
2022/11/26 02:01:51;;;;;;;4.93;1.85;;;;;;;;;;4980332;28;20060;-67
2022/11/26 02:04:25;;;;;;;7.72;2.80;;;;;;;;;;4982271;28;20133;-66
2022/11/26 02:06:53;;;;;;;6.13;2.08;;;;;;;;;;4982783;28;20141;-68
2022/11/26 02:09:19;;;;;;;4.18;1.83;;;;;;;;;;4983603;28;20046;-67
2022/11/26 02:11:45;;;;;;;3.67;2.20;;;;;;;;;;4982636;28;20521;-67
2022/11/26 02:14:16;;;;;;;4.82;2.47;;;;;;;;;;4983114;28;20046;-67
2022/11/26 02:16:50;;;;;;;8.45;2.60;;;;;;;;;;4984136;28;20046;-67
2022/11/26 02:19:38;;;;;;;3.28;2.70;;;;;;;;;;4983746;28;20153;-66
2022/11/26 02:22:20;;;;;;;6.07;2.75;;;;;;;;;;4999599;28;20538;-68
2022/11/26 02:25:09;;;;;;;5.63;2.67;;;;;;;;;;4982009;28;20077;-67
2022/11/26 02:27:53;;;;;;;4.30;2.30;;;;;;;;;;4972417;28;20046;-68
2022/11/26 02:30:18;;;;;;;7.45;2.83;;;;;;;;;;4983419;28;20108;-67
2022/11/26 02:32:57;;;;;;;10.30;3.08;;;;;;;;;;4983651;28;20054;-68
2022/11/26 02:35:49;;;;;;;5.10;2.25;;;;;;;;;;4982641;28;20085;-68
2022/11/26 02:38:24;;;;;;;4.47;2.60;;;;;;;;;;4979246;28;20054;-68
2022/11/26 02:40:51;;;;;;;5.38;2.63;;;;;;;;;;4981659;28;20046;-68
2022/11/26 02:43:18;;;;;;;5.30;2.33;;;;;;;;;;4982802;28;20059;-67
2022/11/26 02:45:51;;;;;;;7.20;3.45;;;;;;;;;;4983466;28;20502;-68
2022/11/26 02:48:21;;;;;;;5.57;2.40;;;;;;;;;;4982549;28;20168;-68
2022/11/26 02:50:53;;;;;;;7.85;2.78;;;;;;;;;;4982944;28;20185;-68
2022/11/26 02:53:21;;;;;;;7.95;2.60;;;;;;;;;;4982661;28;20145;-69
2022/11/26 02:55:52;;;;;;;5.03;2.38;;;;;;;;;;4983182;28;20585;-69
2022/11/26 02:58:18;;;;;;;4.88;2.47;;;;;;;;;;4982282;28;20131;-67
2022/11/26 03:00:47;;;;;;;5.35;2.97;;;;;;;;;;4982878;28;20137;-68
2022/11/26 03:03:22;;;;;;;4.70;2.00;;;;;;;;;;4980924;28;20563;-67
2022/11/26 03:05:54;;;;;;;8.32;2.53;;;;;;;;;;4982934;28;20515;-65
2022/11/26 03:08:21;;;;;;;10.48;2.70;;;;;;;;;;4982203;28;20045;-67
2022/11/26 03:10:47;;;;;;;4.82;3.13;;;;;;;;;;4982567;28;20078;-67
2022/11/26 03:13:12;;;;;;;7.18;2.75;;;;;;;;;;4982127;28;20093;-66
2022/11/26 03:15:37;;;;;;;6.00;2.78;;;;;;;;;;4982466;28;20046;-67
2022/11/26 03:18:03;;;;;;;7.90;3.20;;;;;;;;;;4982787;28;20081;-67
2022/11/26 03:20:28;;;;;;;5.07;2.60;;;;;;;;;;4981535;28;20929;-67
2022/11/26 03:22:54;;;;;;;5.30;2.60;;;;;;;;;;4981930;28;20050;-69
2022/11/26 03:25:19;;;;;;;4.15;2.70;;;;;;;;;;4982740;28;20085;-67
2022/11/26 03:27:45;;;;;;;5.55;2.90;;;;;;;;;;4982671;28;20137;-68
2022/11/26 03:30:11;;;;;;;4.78;3.05;;;;;;;;;;4981669;28;20046;-67
2022/11/26 03:32:36;;;;;;;4.28;2.70;;;;;;;;;;4981936;28;20499;-67
2022/11/26 03:35:03;;;;;;;4.68;2.78;;;;;;;;;;4981755;28;20046;-68
2022/11/26 03:37:29;;;;;;;4.15;2.72;;;;;;;;;;4982529;28;20490;-65
2022/11/26 03:39:54;;;;;;;9.50;2.67;;;;;;;;;;4981983;28;20050;-66
2022/11/26 03:42:20;;;;;;;7.88;3.03;;;;;;;;;;4981121;28;20077;-67
2022/11/26 03:44:45;;;;;;;11.15;2.78;;;;;;;;;;4982031;28;20072;-66
2022/11/26 03:47:11;;;;;;;10.18;3.20;;;;;;;;;;4981343;28;20049;-66
2022/11/26 03:49:36;;;;;;;6.03;2.55;;;;;;;;;;4982369;28;20046;-66
2022/11/26 03:52:02;;;;;;;8.23;2.97;;;;;;;;;;4981427;28;20788;-68
2022/11/26 03:54:28;;;;;;;5.70;3.20;;;;;;;;;;4981261;28;20057;-66
2022/11/26 03:56:53;;;;;;;5.57;3.15;;;;;;;;;;4981643;28;20621;-67
2022/11/26 03:59:19;;;;;;;6.53;3.03;;;;;;;;;;4981344;28;20415;-67
2022/11/26 04:01:44;;;;;;;6.05;3.22;;;;;;;;;;4979972;28;20189;-67
2022/11/26 04:04:09;;;;;;;6.70;3.17;;;;;;;;;;4981434;28;20521;-68
2022/11/26 04:06:35;;;;;;;6.15;3.25;;;;;;;;;;4981831;28;20046;-66
2022/11/26 04:09:00;;;;;;;6.93;3.17;;;;;;;;;;4980055;28;20046;-68
2022/11/26 04:11:26;;;;;;;7.70;3.30;;;;;;;;;;4981533;28;20065;-67
2022/11/26 04:13:51;;;;;;;10.27;3.85;;;;;;;;;;4980073;28;20054;-67
2022/11/26 04:16:17;;;;;;;9.95;4.30;;;;;;;;;;4980101;28;20049;-68
2022/11/26 04:18:42;;;;;;;7.53;2.97;;;;;;;;;;4981114;28;20042;-67
2022/11/26 04:21:08;;;;;;;11.05;3.25;;;;;;;;;;4980101;28;20074;-67
2022/11/26 04:23:34;;;;;;;12.52;3.63;;;;;;;;;;4979341;28;20058;-68
2022/11/26 04:26:00;;;;;;;4.82;2.70;;;;;;;;;;4979694;28;20050;-67
2022/11/26 04:28:26;;;;;;;6.55;3.20;;;;;;;;;;4981589;28;21117;-68
2022/11/26 04:30:51;;;;;;;7.90;2.85;;;;;;;;;;4981166;28;20743;-67
2022/11/26 04:33:17;;;;;;;3.90;2.22;;;;;;;;;;4980630;28;20050;-68
2022/11/26 04:35:42;;;;;;;4.65;2.95;;;;;;;;;;4981676;28;20046;-68
2022/11/26 04:38:08;;;;;;;6.57;2.88;;;;;;;;;;4977544;28;20085;-68
2022/11/26 04:40:34;;;;;;;4.60;2.80;;;;;;;;;;4980896;28;20052;-68
2022/11/26 04:42:59;;;;;;;4.22;2.33;;;;;;;;;;4979912;28;20426;-67
2022/11/26 04:45:25;;;;;;;11.50;2.55;;;;;;;;;;4981321;28;20100;-68
2022/11/26 04:47:50;;;;;;;9.02;3.25;;;;;;;;;;4980299;28;20046;-67
2022/11/26 04:50:16;;;;;;;7.53;3.20;;;;;;;;;;4980092;28;20050;-67
2022/11/26 04:52:41;;;;;;;8.07;2.90;;;;;;;;;;4979094;28;20042;-67
2022/11/26 04:55:07;;;;;;;7.68;2.53;;;;;;;;;;4980757;28;20522;-65
2022/11/26 04:57:32;;;;;;;5.40;2.55;;;;;;;;;;4981054;28;20046;-65
2022/11/26 04:59:58;;;;;;;11.35;2.42;;;;;;;;;;4980265;28;20265;-66
2022/11/26 05:02:23;;;;;;;2.05;1.70;;;;;;;;;;4980629;28;20042;-65
2022/11/26 05:04:49;;;;;;;9.75;2.92;;;;;;;;;;4981039;28;20761;-67
2022/11/26 05:07:14;;;;;;;3.20;2.28;;;;;;;;;;4980420;28;20050;-67
2022/11/26 05:09:40;;;;;;;6.57;2.95;;;;;;;;;;4980699;28;20685;-69
2022/11/26 05:12:05;;;;;;;6.13;2.80;;;;;;;;;;4980663;28;20433;-68
2022/11/26 05:14:31;;;;;;;4.80;2.95;;;;;;;;;;4978726;28;20065;-68
2022/11/26 05:16:56;;;;;;;7.50;3.17;;;;;;;;;;4979653;28;20483;-65
2022/11/26 05:19:22;;;;;;;10.60;3.58;;;;;;;;;;4978061;28;20050;-67
2022/11/26 05:21:47;;;;;;;5.55;2.85;;;;;;;;;;4978216;28;20046;-66
2022/11/26 05:24:12;;;;;;;5.47;2.33;;;;;;;;;;4979598;28;20153;-65
2022/11/26 05:26:38;;;;;;;5.55;2.88;;;;;;;;;;4978816;28;20220;-65
2022/11/26 05:29:03;;;;;;;12.35;3.45;;;;;;;;;;4994298;28;20042;-67
2022/11/26 05:31:29;;;;;;;6.53;3.53;;;;;;;;;;4978470;28;20750;-66
2022/11/26 05:33:55;;;;;;;4.03;2.97;;;;;;;;;;4979334;28;20141;-68
2022/11/26 05:36:20;;;;;;;5.10;3.03;;;;;;;;;;4979476;28;20129;-67
2022/11/26 05:38:46;;;;;;;7.20;1.92;;;;;;;;;;4983373;28;20058;-68
2022/11/26 05:41:11;;;;;;;5.35;2.95;;;;;;;;;;4983497;28;20046;-68
2022/11/26 05:43:37;;;;;;;10.80;3.97;;;;;;;;;;4993783;28;20057;-68
2022/11/26 05:46:04;;;;;;;6.90;3.30;;;;;;;;;;4982875;28;20034;-69
2022/11/26 05:48:30;;;;;;;7.15;4.20;;;;;;;;;;4983711;28;20507;-68
2022/11/26 05:50:57;;;;;;;15.93;4.05;;;;;;;;;;4982713;28;20042;-70
2022/11/26 05:53:23;;;;;;;7.13;3.45;;;;;;;;;;4982652;28;20066;-69
2022/11/26 05:55:48;;;;;;;7.80;3.47;;;;;;;;;;4983061;28;20069;-69
2022/11/26 05:58:14;;;;;;;9.63;3.50;;;;;;;;;;4984218;28;20061;-69
2022/11/26 06:00:39;;;;;;;8.77;3.92;;;;;;;;;;4982861;28;20050;-67
2022/11/26 06:03:05;;;;;;;12.15;4.38;;;;;;;;;;4981580;28;20108;-68
2022/11/26 06:05:30;;;;;;;9.65;4.30;;;;;;;;;;4981352;28;20042;-71
2022/11/26 06:07:56;;;;;;;8.27;3.78;;;;;;;;;;4982665;28;20066;-69
2022/11/26 06:10:21;;;;;;;6.95;3.70;;;;;;;;;;4983034;28;20054;-71
2022/11/26 06:12:46;;;;;;;8.60;4.07;;;;;;;;;;4983710;28;20046;-71
2022/11/26 06:15:12;;;;;;;7.82;3.03;;;;;;;;;;4982119;28;20161;-70
2022/11/26 06:17:37;;;;;;;8.20;3.55;;;;;;;;;;4982481;28;20384;-70
2022/11/26 06:20:04;;;;;;;11.38;4.05;;;;;;;;;;4980010;28;20101;-70
2022/11/26 06:22:30;;;;;;;10.07;4.32;;;;;;;;;;4980741;28;20046;-70
2022/11/26 06:24:55;;;;;;;8.02;3.58;;;;;;;;;;4980939;28;20042;-70
2022/11/26 06:27:21;;;;;;;9.85;3.97;;;;;;;;;;4978374;28;20049;-69
2022/11/26 06:29:46;;;;;;;9.38;4.40;;;;;;;;;;4981229;28;20057;-70
2022/11/26 06:32:11;;;;;;;2.35;2.03;;;;;;;;;;4980351;28;20046;-71
2022/11/26 06:34:37;;;;;;;10.75;3.80;;;;;;;;;;4981283;28;20038;-70
2022/11/26 06:37:02;;;;;;;12.75;3.85;;;;;;;;;;4981487;28;20050;-70
2022/11/26 06:39:28;;;;;;;8.82;4.05;;;;;;;;;;4981397;28;20141;-70
2022/11/26 06:41:53;;;;;;;11.35;3.53;;;;;;;;;;4982706;28;20048;-71
2022/11/26 06:44:19;;;;;;;12.60;4.05;;;;;;;;;;4983804;28;20080;-71
2022/11/26 06:46:44;;;;;;;6.85;3.63;;;;;;;;;;4982286;28;20384;-71
2022/11/26 06:49:10;;;;;;;12.95;3.92;;;;;;;;;;4980800;28;20026;-71
2022/11/26 06:51:35;;;;;;;6.32;3.50;;;;;;;;;;4981482;28;20403;-71
2022/11/26 06:54:01;;;;;;;9.93;2.78;;;;;;;;;;4982125;28;20038;-71
2022/11/26 06:56:26;;;;;;;4.80;3.63;;;;;;;;;;4981962;28;20042;-71
2022/11/26 06:58:54;;;;;;;7.32;3.65;;;;;;;;;;4983079;28;20060;-70
2022/11/26 07:01:22;;;;;;;9.10;3.58;;;;;;;;;;4981295;28;20133;-70
2022/11/26 07:03:48;;;;;;;6.13;3.67;;;;;;;;;;4981820;28;20407;-69
2022/11/26 07:06:18;;;;;;;6.35;3.70;;;;;;;;;;4981471;28;21064;-69
2022/11/26 07:08:43;;;;;;;8.32;3.70;;;;;;;;;;4981297;28;20080;-69
2022/11/26 07:11:09;;;;;;;8.27;3.80;;;;;;;;;;4994956;28;20074;-70
2022/11/26 07:13:35;;;;;;;6.20;3.05;;;;;;;;;;4995981;28;20061;-70
2022/11/26 07:16:02;;;;;;;6.60;3.58;;;;;;;;;;4979846;28;20057;-70
2022/11/26 07:18:28;;;;;;;7.78;3.70;;;;;;;;;;4979529;28;20555;-69
2022/11/26 07:20:53;;;;;;;9.27;3.90;;;;;;;;;;4980564;28;20125;-70
2022/11/26 07:23:19;;;;;;;6.60;3.40;;;;;;;;;;4979906;28;20108;-69
2022/11/26 07:25:44;;;;;;;5.30;3.33;;;;;;;;;;4982372;28;20052;-69
2022/11/26 07:28:10;;;;;;;8.68;3.30;;;;;;;;;;4982072;28;20384;-69
2022/11/26 07:30:35;;;;;;;3.72;2.72;;;;;;;;;;4982224;28;20061;-69
2022/11/26 07:33:00;;;;;;;10.32;3.80;;;;;;;;;;4979865;28;20046;-70
2022/11/26 07:35:26;;;;;;;7.88;2.58;;;;;;;;;;4982143;28;20058;-69
2022/11/26 07:37:52;;;;;;;6.35;3.33;;;;;;;;;;4981898;28;20046;-70
2022/11/26 07:40:18;;;;;;;7.40;4.03;;;;;;;;;;4982104;28;20061;-69
2022/11/26 07:42:43;;;;;;;8.68;4.72;;;;;;;;;;4981241;28;20419;-70
2022/11/26 07:45:09;;;;;;;8.23;4.18;;;;;;;;;;4978587;28;20078;-69
2022/11/26 07:47:34;;;;;;;7.47;3.58;;;;;;;;;;4981146;28;20054;-69
2022/11/26 07:50:00;;;;;;;8.68;3.88;;;;;;;;;;4980705;28;20141;-70
2022/11/26 07:52:25;;;;;;;10.77;4.50;;;;;;;;;;4981730;28;20050;-69
2022/11/26 07:54:51;;;;;;;9.25;4.13;;;;;;;;;;4979509;28;20138;-70
2022/11/26 07:57:17;;;;;;;7.50;3.90;;;;;;;;;;4980771;28;20108;-70
2022/11/26 07:59:42;;;;;;;8.00;3.75;;;;;;;;;;4980946;28;20515;-70
2022/11/26 08:02:13;;;;;;;13.25;3.88;;;;;;;;;;4980638;28;20046;-70
2022/11/26 08:04:38;;;;;;;11.52;4.18;;;;;;;;;;4981924;28;20045;-70
2022/11/26 08:07:04;;;;;;;14.65;4.43;;;;;;;;;;4979094;28;20046;-71
2022/11/26 08:09:29;;;;;;;8.82;4.40;;;;;;;;;;4980383;28;21009;-70
2022/11/26 08:11:55;;;;;;;10.65;4.50;;;;;;;;;;4981005;28;20482;-71
2022/11/26 08:14:20;;;;;;;6.00;3.60;;;;;;;;;;4980235;28;20506;-71
2022/11/26 08:16:46;;;;;;;7.97;4.60;;;;;;;;;;4979719;28;20048;-70
2022/11/26 08:19:12;;;;;;;4.97;3.60;;;;;;;;;;4980960;28;20042;-71
2022/11/26 08:21:38;;;;;;;13.85;4.32;;;;;;;;;;4978964;28;20054;-70
2022/11/26 08:24:05;;;;;;;11.00;4.63;;;;;;;;;;4981479;28;20053;-70
2022/11/26 08:26:31;;;;;;;12.68;4.35;;;;;;;;;;4981228;28;20069;-70
2022/11/26 08:28:58;;;;;;;8.25;4.57;;;;;;;;;;4980156;28;20061;-71
2022/11/26 08:31:26;;;;;;;15.35;4.65;;;;;;;;;;4993766;28;20428;-71
2022/11/26 08:33:55;;;;;;;7.50;3.47;;;;;;;;;;4978784;28;20049;-72
2022/11/26 08:36:21;;;;;;;8.75;4.10;;;;;;;;;;4980904;28;20446;-71
2022/11/26 08:38:46;;;;;;;7.07;3.38;;;;;;;;;;4979015;28;20057;-72
2022/11/26 08:41:12;;;;;;;6.88;3.08;;;;;;;;;;4980284;28;20399;-70
2022/11/26 08:43:39;;;;;;;10.43;3.67;;;;;;;;;;4980663;28;20054;-71
2022/11/26 08:46:05;;;;;;;7.57;3.85;;;;;;;;;;4980997;28;20519;-72
2022/11/26 08:48:31;;;;;;;5.78;3.20;;;;;;;;;;4979685;28;20044;-72
2022/11/26 08:50:58;;;;;;;8.30;3.63;;;;;;;;;;4979787;28;20046;-71
2022/11/26 08:53:23;;;;;;;6.28;2.97;;;;;;;;;;4980566;28;20077;-71
2022/11/26 08:55:49;;;;;;;5.75;2.92;;;;;;;;;;4980908;28;20147;-67
2022/11/26 08:58:14;;;;;;;3.83;2.75;;;;;;;;;;4981510;28;20074;-71
2022/11/26 09:00:40;;;;;;;2.70;2.33;;;;;;;;;;4979944;28;20384;-71
2022/11/26 09:03:06;;;;;;;5.03;2.90;;;;;;;;;;4979864;28;20053;-73
2022/11/26 09:05:32;;;;;;;5.07;2.88;;;;;;;;;;4977599;28;20042;-71
2022/11/26 09:07:57;;;;;;;8.82;2.95;;;;;;;;;;4976737;28;20057;-72
2022/11/26 09:10:23;;;;;;;6.07;2.60;;;;;;;;;;4978653;28;20109;-67
2022/11/26 09:12:48;;;;;;;4.57;2.70;;;;;;;;;;4979720;28;20053;-68
2022/11/26 09:15:14;;;;;;;4.93;2.30;;;;;;;;;;4979871;28;20046;-66
2022/11/26 09:17:40;;;;;;;5.40;2.55;;;;;;;;;;4983929;28;20098;-71
2022/11/26 09:20:07;;;;;;;3.97;2.05;;;;;;;;;;4981639;28;20042;-70
2022/11/26 09:22:33;;;;;;;6.78;2.17;;;;;;;;;;4977705;28;20057;-69
2022/11/26 09:24:59;;;;;;;3.53;1.85;;;;;;;;;;4995375;28;20146;-74
2022/11/26 09:27:24;;;;;;;3.72;2.00;;;;;;;;;;4982066;28;21152;-70
2022/11/26 09:29:50;;;;;;;4.45;1.98;;;;;;;;;;4982134;28;20042;-71
2022/11/26 09:32:15;;;;;;;3.35;2.13;;;;;;;;;;4980802;28;20050;-70
2022/11/26 09:34:41;;;;;;;6.00;2.53;;;;;;;;;;4980053;28;21052;-71
2022/11/26 09:37:06;;;;;;;4.20;2.03;;;;;;;;;;4981193;28;20065;-70
2022/11/26 09:39:32;;;;;;;9.43;2.40;;;;;;;;;;4981660;28;20035;-71
2022/11/26 09:42:00;;;;;;;5.60;2.47;;;;;;;;;;4981471;28;20077;-70
2022/11/26 09:44:30;;;;;;;8.60;2.20;;;;;;;;;;4995309;28;20081;-71
2022/11/26 09:47:19;;;;;;;5.22;2.20;;;;;;;;;;4979861;28;20046;-71
2022/11/26 09:50:06;;;;;;;5.28;1.75;;;;;;;;;;4978235;28;20042;-72
2022/11/26 09:52:47;;;;;;;4.90;2.22;;;;;;;;;;4981977;28;20136;-70
2022/11/26 09:55:18;;;;;;;5.20;2.13;;;;;;;;;;4982567;28;20542;-72
2022/11/26 09:58:09;;;;;;;2.77;2.10;;;;;;;;;;4983805;28;20407;-70
2022/11/26 10:00:42;;;;;;;3.80;1.88;;;;;;;;;;4984285;28;20050;-70
2022/11/26 10:03:19;;;;;;;3.88;1.83;;;;;;;;;;4982516;28;20057;-70
2022/11/26 10:06:03;;;;;;;3.55;1.77;;;;;;;;;;4982158;28;20096;-71
2022/11/26 10:08:47;;;;;;;3.13;2.00;;;;;;;;;;4982031;28;20042;-71
2022/11/26 10:11:39;;;;;;;6.43;2.13;;;;;;;;;;4982709;28;20093;-70
2022/11/26 10:14:10;;;;;;;5.55;2.22;;;;;;;;;;4982676;28;20050;-71
2022/11/26 10:17:12;;;;;;;5.88;2.13;;;;;;;;;;4983422;28;20529;-71
2022/11/26 10:19:47;;;;;;;3.63;2.17;;;;;;;;;;4969444;28;20145;-70
2022/11/26 10:22:23;;;;;;;3.88;1.95;;;;;;;;;;4980169;28;20053;-71
2022/11/26 10:24:49;;;;;;;4.72;2.40;;;;;;;;;;4979604;28;20042;-71
2022/11/26 10:27:18;;;;;;;4.82;2.22;;;;;;;;;;4978541;28;20057;-71
2022/11/26 10:29:50;;;;;;;3.58;1.92;;;;;;;;;;4980196;28;20065;-70
2022/11/26 10:32:24;;;;;;;3.50;2.00;;;;;;;;;;4979771;28;20046;-70
2022/11/26 10:34:52;;;;;;;3.20;2.08;;;;;;;;;;4981204;28;20048;-70
2022/11/26 10:37:20;;;;;;;3.63;1.75;;;;;;;;;;4980884;28;20042;-71
2022/11/26 10:39:46;;;;;;;3.70;1.90;;;;;;;;;;4981534;28;20431;-70
2022/11/26 10:42:16;;;;;;;7.30;2.20;;;;;;;;;;4982446;28;20078;-71
2022/11/26 10:44:42;;;;;;;2.40;2.03;;;;;;;;;;4981865;28;20129;-71
2022/11/26 10:47:27;;;;;;;5.63;2.05;;;;;;;;;;4995835;28;20125;-70
2022/11/26 10:49:57;;;;;;;11.77;2.80;;;;;;;;;;4981777;28;20071;-71
2022/11/26 10:52:28;;;;;;;8.90;2.60;;;;;;;;;;4980309;28;20762;-70
2022/11/26 10:55:18;;;;;;;3.75;2.47;;;;;;;;;;4979636;28;20806;-71
2022/11/26 10:57:51;;;;;;;5.55;2.90;;;;;;;;;;4979204;28;20061;-71
2022/11/26 11:01:00;;;;;;;5.82;3.17;;;;;;;;;;4996646;28;20130;-70
2022/11/26 11:03:28;;;;;;;4.97;2.70;;;;;;;;;;4892838;29;20049;-71
2022/11/26 11:06:23;;;;;;;10.23;3.00;;;;;;;;;;4969005;28;20038;-70
2022/11/26 11:08:51;;;;;;;9.05;5.68;;;;;;;;;;4980096;28;20060;-71
2022/11/26 11:11:28;;;;;;;5.65;2.92;;;;;;;;;;4980070;28;20078;-72
2022/11/26 11:13:53;;;;;;;3.72;2.25;;;;;;;;;;4979691;28;20041;-71
2022/11/26 11:16:37;;;;;;;6.15;3.05;;;;;;;;;;4980979;28;20100;-70
2022/11/26 11:19:17;;;;;;;7.20;2.75;;;;;;;;;;4973714;28;20125;-70
2022/11/26 11:21:44;;;;;;;7.30;3.17;;;;;;;;;;4982686;28;20050;-71
2022/11/26 11:24:19;;;;;;;10.40;3.35;;;;;;;;;;4980267;28;20054;-70
2022/11/26 11:26:47;;;;;;;11.60;3.10;;;;;;;;;;4980192;28;20053;-70
2022/11/26 11:29:33;;;;;;;7.13;2.80;;;;;;;;;;4977842;28;20045;-71
2022/11/26 11:32:01;;;;;;;5.22;3.05;;;;;;;;;;4979334;28;20085;-70
2022/11/26 11:34:39;;;;;;;4.05;2.88;;;;;;;;;;4976308;28;20100;-71
2022/11/26 11:37:16;;;;;;;10.02;2.67;;;;;;;;;;4978266;28;20082;-71
2022/11/26 11:39:42;;;;;;;6.07;2.67;;;;;;;;;;4979592;28;20138;-72
2022/11/26 11:42:28;;;;;;;5.00;2.95;;;;;;;;;;4978421;28;20108;-70
2022/11/26 11:44:57;;;;;;;10.95;2.50;;;;;;;;;;4979928;28;20129;-70
2022/11/26 11:47:55;;;;;;;7.57;2.50;;;;;;;;;;4976945;28;20038;-69
2022/11/26 11:50:37;;;;;;;3.78;2.30;;;;;;;;;;4978274;28;20054;-69
2022/11/26 11:53:15;;;;;;;8.10;2.47;;;;;;;;;;4979380;28;20038;-69
2022/11/26 11:56:18;;;;;;;7.70;2.80;;;;;;;;;;4980822;28;20841;-70
2022/11/26 11:58:53;;;;;;;8.85;2.90;;;;;;;;;;4981225;28;20124;-70
2022/11/26 12:01:34;;;;;;;7.50;3.00;;;;;;;;;;4975420;28;20518;-70
2022/11/26 12:04:20;;;;;;;5.30;2.90;;;;;;;;;;4981033;28;20046;-71
2022/11/26 12:06:58;;;;;;;9.70;2.85;;;;;;;;;;4979700;28;20293;-71
2022/11/26 12:09:42;;;;;;;7.43;3.33;;;;;;;;;;4979824;28;20112;-71
2022/11/26 12:12:43;;;;;;;5.22;2.65;;;;;;;;;;4980725;28;20058;-71
2022/11/26 12:15:11;;;;;;;8.32;3.90;;;;;;;;;;4980518;28;20511;-71
2022/11/26 12:17:39;;;;;;;9.35;3.58;;;;;;;;;;4981671;28;20057;-71
2022/11/26 12:20:30;;;;;;;5.22;3.67;;;;;;;;;;4976897;28;20124;-69
2022/11/26 12:23:13;;;;;;;5.95;3.10;;;;;;;;;;4978436;28;20042;-67
2022/11/26 12:25:39;;;;;;;8.43;3.78;;;;;;;;;;4976903;28;20046;-71
2022/11/26 12:28:12;;;;;;;9.88;3.97;;;;;;;;;;4977987;28;20060;-71
2022/11/26 12:31:07;;;;;;;10.32;4.15;;;;;;;;;;4974686;28;20503;-70
2022/11/26 12:33:34;;;;;;;8.93;3.88;;;;;;;;;;4963099;28;20050;-70
2022/11/26 12:36:11;;;;;;;12.60;4.35;;;;;;;;;;4977330;28;20054;-71
2022/11/26 12:38:46;;;;;;;7.90;4.10;;;;;;;;;;4968846;28;20175;-71
2022/11/26 12:41:20;;;;;;;11.35;4.63;;;;;;;;;;4957004;28;20066;-71
2022/11/26 12:44:07;;;;;;;13.13;4.95;;;;;;;;;;4976483;28;20061;-71
2022/11/26 12:46:51;;;;;;;7.13;3.88;;;;;;;;;;4977696;28;20403;-71
2022/11/26 12:49:19;;;;;;;16.27;6.47;;;;;;;;;;4977561;28;20046;-71
2022/11/26 12:52:11;;;;;;;14.63;8.18;;;;;;;;;;4977932;28;20117;-71
2022/11/26 12:54:52;;;;;;;24.25;10.48;;;;;;;;;;4937750;28;20384;-71
2022/11/26 12:57:27;;;;;;;31.80;16.08;;;;;;;;;;4977934;28;20050;-71
2022/11/26 13:00:05;;;;;;;16.63;9.10;;;;;;;;;;4978230;28;20050;-71
2022/11/26 13:02:41;;;;;;;28.60;13.93;;;;;;;;;;4976844;28;20046;-71
2022/11/26 13:05:10;;;;;;;10.52;4.82;;;;;;;;;;4977267;28;20153;-71
2022/11/26 13:08:14;;;;;;;11.38;4.47;;;;;;;;;;4976878;28;20569;-71
2022/11/26 13:11:02;;;;;;;25.75;12.52;;;;;;;;;;4888136;29;20079;-71
2022/11/26 13:14:03;;;;;;;13.02;5.50;;;;;;;;;;4880563;29;20052;-70
2022/11/26 13:16:37;;;;;;;41.70;20.80;;;;;;;;;;4965512;28;20046;-71
2022/11/26 13:19:32;;;;;;;18.08;10.98;;;;;;;;;;4976452;28;20096;-71
2022/11/26 13:22:01;;;;;;;27.95;12.95;;;;;;;;;;4950755;28;20149;-70
2022/11/26 13:24:38;;;;;;;9.18;5.32;;;;;;;;;;4976795;28;20054;-71
2022/11/26 13:27:28;;;;;;;14.43;7.10;;;;;;;;;;4975452;28;20046;-71
2022/11/26 13:30:08;;;;;;;12.18;4.53;;;;;;;;;;4978318;28;20530;-70
2022/11/26 13:33:07;;;;;;;8.18;3.38;;;;;;;;;;4994237;28;20054;-70
2022/11/26 13:36:04;;;;;;;10.38;4.45;;;;;;;;;;4978506;28;20137;-71
2022/11/26 13:38:59;;;;;;;9.38;4.78;;;;;;;;;;4979462;28;20042;-71
2022/11/26 13:41:52;;;;;;;9.98;3.65;;;;;;;;;;4979635;28;20415;-69
2022/11/26 13:44:38;;;;;;;11.70;5.13;;;;;;;;;;4980597;28;20842;-69
2022/11/26 13:47:32;;;;;;;9.93;3.53;;;;;;;;;;4993124;28;20050;-69
2022/11/26 13:50:25;;;;;;;5.80;3.70;;;;;;;;;;4993206;28;20054;-69
2022/11/26 13:52:57;;;;;;;9.85;4.00;;;;;;;;;;4978264;28;20535;-70
2022/11/26 13:55:31;;;;;;;;;;;;;;;;;;4978390;28;20042;-71
2022/11/26 13:58:00;;;;;;;7.85;4.07;;;;;;;;;;4978498;28;19924;-70
2022/11/26 14:00:29;;;;;;;4.55;3.45;;;;;;;;;;4981519;28;20046;-70
2022/11/26 14:02:55;;;;;;;8.45;3.58;;;;;;;;;;4981053;28;20666;-70
2022/11/26 14:05:22;;;;;;;6.82;3.03;;;;;;;;;;4980793;28;20054;-70
2022/11/26 14:07:48;;;;;;;11.73;3.33;;;;;;;;;;4981218;28;20050;-70
2022/11/26 14:10:34;;;;;;;8.38;3.78;;;;;;;;;;4980213;28;20132;-71
2022/11/26 14:13:02;;;;;;;10.02;4.03;;;;;;;;;;4981340;28;20063;-70
2022/11/26 14:15:39;;;;;;;5.82;3.53;;;;;;;;;;4980434;28;20096;-70
2022/11/26 14:18:06;;;;;;;10.32;3.40;;;;;;;;;;4981772;28;20431;-70
2022/11/26 14:21:12;;;;;;;8.20;3.47;;;;;;;;;;4980150;28;20196;-70
2022/11/26 14:23:41;;;;;;;9.05;5.15;;;;;;;;;;4951038;28;20057;-71
2022/11/26 14:26:16;;;;;;;8.32;4.45;;;;;;;;;;4979683;28;20054;-70
2022/11/26 14:28:41;;;;;;;10.70;4.65;;;;;;;;;;4982501;28;20137;-69
2022/11/26 14:31:31;;;;;;;14.25;4.60;;;;;;;;;;4981134;28;20133;-70
2022/11/26 14:34:03;;;;;;;13.55;5.40;;;;;;;;;;4981989;28;20050;-70
2022/11/26 14:36:29;;;;;;;10.43;4.60;;;;;;;;;;4979475;28;20554;-70
2022/11/26 14:39:12;;;;;;;7.30;4.30;;;;;;;;;;4981351;28;20397;-71
2022/11/26 14:41:41;;;;;;;7.00;4.15;;;;;;;;;;4977625;28;20046;-70
2022/11/26 14:44:14;;;;;;;9.75;3.97;;;;;;;;;;4980714;28;20049;-69
2022/11/26 14:46:40;;;;;;;13.80;5.10;;;;;;;;;;4980945;28;20499;-69
2022/11/26 14:49:31;;;;;;;15.82;4.28;;;;;;;;;;4980050;28;20045;-69
2022/11/26 14:51:58;;;;;;;12.07;4.22;;;;;;;;;;4981693;28;20046;-69
2022/11/26 14:54:26;;;;;;;7.68;3.97;;;;;;;;;;4980729;28;20104;-69
2022/11/26 14:56:51;;;;;;;6.57;3.58;;;;;;;;;;4980870;28;20052;-70
2022/11/26 14:59:17;;;;;;;13.10;4.47;;;;;;;;;;4979756;28;20779;-69
2022/11/26 15:01:45;;;;;;;10.00;4.53;;;;;;;;;;4982128;28;20169;-69
2022/11/26 15:04:28;;;;;;;11.18;4.38;;;;;;;;;;4995721;28;20616;-70